SDM6008 UUWW-URWW
Flight info
| Callsign | SDM6008 |
|---|---|
| Flight time | N/A |
| Altitude | 35000 |
| Route | EMGAS T828 OLBEG N72 ST |
| Aircraft | A320/M-SDE3FGHIRWY/LB1 |
Departure
| Time | N/A |
|---|---|
| Airport | Vnukovo International Airport (UUWW) |
Arrival
| Time | 2026-04-27 09:26 |
|---|---|
| Airport | Volgograd International Airport (URWW) |
| Time | Latitude | Longitude | Altitude | Speed | Heading |
|---|---|---|---|---|---|
| 2026-04-27 08:16 | 55.10198 | 37.70203 | 13889 ft | 341 kts | 176° |
| 2026-04-27 08:16 | 55.07831 | 37.70763 | 14217 ft | 344 kts | 175° |
| 2026-04-27 08:16 | 55.05467 | 37.71323 | 14289 ft | 343 kts | 175° |
| 2026-04-27 08:17 | 55.03111 | 37.71877 | 14297 ft | 343 kts | 176° |
| 2026-04-27 08:17 | 55.00733 | 37.72435 | 14300 ft | 343 kts | 175° |
| 2026-04-27 08:17 | 54.98383 | 37.73244 | 14400 ft | 347 kts | 169° |
| 2026-04-27 08:17 | 54.96035 | 37.74242 | 15075 ft | 349 kts | 169° |
| 2026-04-27 08:18 | 54.93666 | 37.75239 | 15731 ft | 351 kts | 169° |
| 2026-04-27 08:18 | 54.91274 | 37.76232 | 16367 ft | 355 kts | 169° |
| 2026-04-27 08:18 | 54.88888 | 37.77158 | 16981 ft | 356 kts | 174° |
| 2026-04-27 08:18 | 54.86416 | 37.77733 | 17608 ft | 359 kts | 175° |
| 2026-04-27 08:19 | 54.83929 | 37.78302 | 18146 ft | 362 kts | 175° |
| 2026-04-27 08:19 | 54.81423 | 37.78883 | 18693 ft | 365 kts | 175° |
| 2026-04-27 08:19 | 54.78900 | 37.79475 | 19203 ft | 368 kts | 175° |
| 2026-04-27 08:19 | 54.76354 | 37.80066 | 19743 ft | 371 kts | 175° |
| 2026-04-27 08:20 | 54.73782 | 37.80660 | 20233 ft | 375 kts | 174° |
| 2026-04-27 08:20 | 54.71197 | 37.81259 | 20337 ft | 375 kts | 175° |
| 2026-04-27 08:20 | 54.68607 | 37.81864 | 20348 ft | 375 kts | 175° |
| 2026-04-27 08:20 | 54.66027 | 37.82465 | 20353 ft | 374 kts | 175° |
| 2026-04-27 08:21 | 54.63422 | 37.82748 | 20380 ft | 381 kts | 180° |
| 2026-04-27 08:21 | 54.60728 | 37.82917 | 20538 ft | 395 kts | 180° |
| 2026-04-27 08:21 | 54.57932 | 37.83090 | 20766 ft | 406 kts | 180° |
| 2026-04-27 08:21 | 54.55101 | 37.83267 | 21205 ft | 410 kts | 180° |
| 2026-04-27 08:22 | 54.52230 | 37.83448 | 21669 ft | 414 kts | 180° |
| 2026-04-27 08:22 | 54.49342 | 37.83649 | 22132 ft | 418 kts | 178° |
| 2026-04-27 08:22 | 54.46490 | 37.84393 | 22571 ft | 423 kts | 167° |
| 2026-04-27 08:22 | 54.43685 | 37.85964 | 22995 ft | 427 kts | 157° |
| 2026-04-27 08:23 | 54.41028 | 37.88289 | 23345 ft | 430 kts | 152° |
| 2026-04-27 08:23 | 54.38401 | 37.90774 | 23697 ft | 433 kts | 152° |
| 2026-04-27 08:23 | 54.35750 | 37.93268 | 24039 ft | 435 kts | 152° |
| 2026-04-27 08:23 | 54.33087 | 37.95765 | 24386 ft | 438 kts | 152° |
| 2026-04-27 08:24 | 54.30413 | 37.98269 | 24724 ft | 440 kts | 152° |
| 2026-04-27 08:24 | 54.27715 | 38.00782 | 25059 ft | 442 kts | 152° |
| 2026-04-27 08:24 | 54.25003 | 38.03299 | 25394 ft | 444 kts | 153° |
| 2026-04-27 08:24 | 54.22281 | 38.05815 | 25712 ft | 447 kts | 153° |
| 2026-04-27 08:25 | 54.19534 | 38.08347 | 26049 ft | 449 kts | 153° |
| 2026-04-27 08:25 | 54.16778 | 38.10890 | 26346 ft | 451 kts | 153° |
| 2026-04-27 08:25 | 54.14009 | 38.13447 | 26649 ft | 454 kts | 153° |
| 2026-04-27 08:25 | 54.11231 | 38.16015 | 26949 ft | 456 kts | 153° |
| 2026-04-27 08:26 | 54.08436 | 38.18601 | 27241 ft | 458 kts | 153° |
| 2026-04-27 08:26 | 54.05630 | 38.21197 | 27540 ft | 460 kts | 153° |
| 2026-04-27 08:26 | 54.02810 | 38.23802 | 27813 ft | 462 kts | 153° |
| 2026-04-27 08:26 | 53.99978 | 38.26407 | 28096 ft | 464 kts | 153° |
| 2026-04-27 08:27 | 53.97131 | 38.29017 | 28377 ft | 465 kts | 154° |
| 2026-04-27 08:27 | 53.94307 | 38.31592 | 28627 ft | 467 kts | 154° |
| 2026-04-27 08:27 | 53.91432 | 38.34211 | 28879 ft | 469 kts | 154° |
| 2026-04-27 08:27 | 53.88556 | 38.36829 | 29114 ft | 471 kts | 154° |
| 2026-04-27 08:28 | 53.85667 | 38.39455 | 29342 ft | 473 kts | 154° |
| 2026-04-27 08:28 | 53.82761 | 38.42092 | 29613 ft | 472 kts | 154° |
| 2026-04-27 08:28 | 53.79870 | 38.44716 | 29887 ft | 472 kts | 154° |
| 2026-04-27 08:28 | 53.76978 | 38.47337 | 30142 ft | 471 kts | 154° |
| 2026-04-27 08:29 | 53.74157 | 38.50178 | 30388 ft | 473 kts | 147° |
| 2026-04-27 08:29 | 53.71576 | 38.53633 | 30650 ft | 474 kts | 142° |
| 2026-04-27 08:29 | 53.69038 | 38.57191 | 30907 ft | 474 kts | 142° |
| 2026-04-27 08:29 | 53.66499 | 38.60734 | 31172 ft | 473 kts | 142° |
| 2026-04-27 08:30 | 53.63959 | 38.64260 | 31433 ft | 473 kts | 143° |
| 2026-04-27 08:30 | 53.61416 | 38.67774 | 31697 ft | 472 kts | 143° |
| 2026-04-27 08:30 | 53.58874 | 38.71277 | 31963 ft | 472 kts | 143° |
| 2026-04-27 08:30 | 53.56336 | 38.74772 | 32220 ft | 471 kts | 143° |
| 2026-04-27 08:31 | 53.53830 | 38.78220 | 32484 ft | 471 kts | 143° |
| 2026-04-27 08:31 | 53.51291 | 38.81711 | 32758 ft | 470 kts | 143° |
| 2026-04-27 08:31 | 53.48764 | 38.85187 | 33029 ft | 470 kts | 143° |
| 2026-04-27 08:31 | 53.46236 | 38.88657 | 33282 ft | 469 kts | 144° |
| 2026-04-27 08:32 | 53.43569 | 38.91765 | 33524 ft | 465 kts | 152° |
| 2026-04-27 08:32 | 53.40675 | 38.94124 | 33738 ft | 461 kts | 160° |
| 2026-04-27 08:32 | 53.37705 | 38.96186 | 33942 ft | 461 kts | 160° |
| 2026-04-27 08:32 | 53.34741 | 38.98246 | 34130 ft | 461 kts | 160° |
| 2026-04-27 08:33 | 53.31779 | 39.00314 | 34319 ft | 461 kts | 160° |
| 2026-04-27 08:33 | 53.28822 | 39.02382 | 34462 ft | 462 kts | 160° |
| 2026-04-27 08:33 | 53.22889 | 39.06523 | 34517 ft | 462 kts | 160° |
| 2026-04-27 08:34 | 53.16954 | 39.10639 | 34524 ft | 462 kts | 160° |
| 2026-04-27 08:34 | 53.11099 | 39.14665 | 34530 ft | 462 kts | 160° |
| 2026-04-27 08:35 | 53.05165 | 39.18746 | 34536 ft | 461 kts | 160° |
| 2026-04-27 08:35 | 52.99231 | 39.22838 | 34545 ft | 462 kts | 160° |
| 2026-04-27 08:36 | 52.93298 | 39.26920 | 34563 ft | 462 kts | 160° |
| 2026-04-27 08:36 | 52.87362 | 39.30986 | 34576 ft | 462 kts | 161° |
| 2026-04-27 08:37 | 52.81408 | 39.35026 | 34585 ft | 462 kts | 161° |
| 2026-04-27 08:37 | 52.75459 | 39.39048 | 34594 ft | 462 kts | 161° |
| 2026-04-27 08:38 | 52.69508 | 39.43083 | 34599 ft | 463 kts | 160° |
| 2026-04-27 08:38 | 52.63556 | 39.47113 | 34599 ft | 462 kts | 160° |
| 2026-04-27 08:39 | 52.57639 | 39.51107 | 34598 ft | 462 kts | 161° |
| 2026-04-27 08:39 | 52.51684 | 39.55098 | 34600 ft | 462 kts | 161° |
| 2026-04-27 08:40 | 52.45730 | 39.59069 | 34604 ft | 462 kts | 161° |
| 2026-04-27 08:40 | 52.39858 | 39.63377 | 34606 ft | 464 kts | 157° |
| 2026-04-27 08:41 | 52.34121 | 39.68231 | 34615 ft | 464 kts | 155° |
| 2026-04-27 08:41 | 52.28399 | 39.73138 | 34618 ft | 464 kts | 156° |
| 2026-04-27 08:42 | 52.22638 | 39.77893 | 34622 ft | 464 kts | 157° |
| 2026-04-27 08:42 | 52.16855 | 39.82572 | 34630 ft | 464 kts | 157° |
| 2026-04-27 08:43 | 52.11108 | 39.87211 | 34636 ft | 464 kts | 157° |
| 2026-04-27 08:43 | 52.05326 | 39.91895 | 34648 ft | 464 kts | 156° |
| 2026-04-27 08:44 | 51.99544 | 39.96577 | 34657 ft | 464 kts | 157° |
| 2026-04-27 08:44 | 51.93766 | 40.01261 | 34663 ft | 465 kts | 156° |
| 2026-04-27 08:45 | 51.87987 | 40.05956 | 34668 ft | 464 kts | 157° |
| 2026-04-27 08:45 | 51.82213 | 40.10623 | 34677 ft | 464 kts | 157° |
| 2026-04-27 08:46 | 51.76422 | 40.15269 | 34681 ft | 464 kts | 157° |
| 2026-04-27 08:46 | 51.74307 | 40.17681 | 34532 ft | 470 kts | 137° |
| 2026-04-27 08:47 | 51.72095 | 40.21558 | 34660 ft | 468 kts | 139° |
| 2026-04-27 08:47 | 51.69513 | 40.24685 | 34679 ft | 463 kts | 155° |
| 2026-04-27 08:47 | 51.63671 | 40.28761 | 34688 ft | 461 kts | 162° |
| 2026-04-27 08:48 | 51.57808 | 40.32978 | 34692 ft | 464 kts | 155° |
| 2026-04-27 08:48 | 51.52306 | 40.38476 | 34698 ft | 467 kts | 149° |
| 2026-04-27 08:49 | 51.46964 | 40.44426 | 34701 ft | 467 kts | 149° |
| 2026-04-27 08:49 | 51.41552 | 40.50193 | 34707 ft | 466 kts | 151° |
| 2026-04-27 08:50 | 51.36062 | 40.55717 | 34708 ft | 466 kts | 152° |
| 2026-04-27 08:50 | 51.30765 | 40.61724 | 34717 ft | 472 kts | 140° |
| 2026-04-27 08:51 | 51.26233 | 40.69376 | 34721 ft | 474 kts | 137° |
| 2026-04-27 08:51 | 51.21727 | 40.77049 | 34724 ft | 474 kts | 137° |
| 2026-04-27 08:52 | 51.17813 | 40.83680 | 34733 ft | 475 kts | 137° |
| 2026-04-27 08:52 | 51.13279 | 40.91323 | 34728 ft | 475 kts | 137° |
| 2026-04-27 08:53 | 51.08733 | 40.98949 | 34733 ft | 475 kts | 137° |
| 2026-04-27 08:53 | 51.04194 | 41.06556 | 34740 ft | 475 kts | 137° |
| 2026-04-27 08:54 | 50.99674 | 41.14111 | 34742 ft | 474 kts | 138° |
| 2026-04-27 08:54 | 50.95126 | 41.21688 | 34745 ft | 474 kts | 138° |
| 2026-04-27 08:55 | 50.90570 | 41.29256 | 34750 ft | 474 kts | 138° |
| 2026-04-27 08:55 | 50.86016 | 41.36802 | 34755 ft | 474 kts | 138° |
| 2026-04-27 08:56 | 50.81453 | 41.44344 | 34760 ft | 474 kts | 138° |
| 2026-04-27 08:56 | 50.76884 | 41.51866 | 34768 ft | 474 kts | 139° |
| 2026-04-27 08:57 | 50.70027 | 41.63115 | 34784 ft | 474 kts | 139° |
| 2026-04-27 08:58 | 50.65445 | 41.70590 | 34791 ft | 474 kts | 139° |
| 2026-04-27 08:58 | 50.60863 | 41.78069 | 34799 ft | 474 kts | 139° |
| 2026-04-27 08:59 | 50.56316 | 41.85499 | 34807 ft | 474 kts | 139° |
| 2026-04-27 08:59 | 50.51731 | 41.92941 | 34811 ft | 474 kts | 139° |
| 2026-04-27 09:00 | 50.47135 | 42.00366 | 34818 ft | 473 kts | 140° |
| 2026-04-27 09:00 | 50.42546 | 42.07766 | 34817 ft | 473 kts | 140° |
| 2026-04-27 09:01 | 50.37953 | 42.15154 | 34819 ft | 473 kts | 140° |
| 2026-04-27 09:01 | 50.33305 | 42.22408 | 34820 ft | 470 kts | 143° |
| 2026-04-27 09:02 | 50.28445 | 42.29216 | 34822 ft | 468 kts | 145° |
| 2026-04-27 09:02 | 50.23513 | 42.35848 | 34827 ft | 467 kts | 145° |
| 2026-04-27 09:03 | 50.18623 | 42.42533 | 34819 ft | 467 kts | 144° |
| 2026-04-27 09:03 | 50.13771 | 42.49281 | 34824 ft | 467 kts | 144° |
| 2026-04-27 09:04 | 50.08930 | 42.56028 | 34832 ft | 467 kts | 144° |
| 2026-04-27 09:04 | 50.04075 | 42.62726 | 34826 ft | 466 kts | 145° |
| 2026-04-27 09:05 | 49.99218 | 42.69384 | 34827 ft | 465 kts | 145° |
| 2026-04-27 09:05 | 49.94397 | 42.75981 | 34835 ft | 465 kts | 145° |
| 2026-04-27 09:06 | 49.89537 | 42.82615 | 34332 ft | 467 kts | 146° |
| 2026-04-27 09:06 | 49.87093 | 42.85945 | 33090 ft | 467 kts | 146° |
| 2026-04-27 09:06 | 49.84664 | 42.89260 | 31900 ft | 463 kts | 146° |
| 2026-04-27 09:06 | 49.82256 | 42.92544 | 30954 ft | 462 kts | 147° |
| 2026-04-27 09:07 | 49.79834 | 42.95834 | 30179 ft | 462 kts | 147° |
| 2026-04-27 09:07 | 49.77431 | 42.99102 | 29501 ft | 458 kts | 147° |
| 2026-04-27 09:07 | 49.75057 | 43.02335 | 28844 ft | 452 kts | 148° |
| 2026-04-27 09:07 | 49.72712 | 43.05522 | 28218 ft | 446 kts | 148° |
| 2026-04-27 09:08 | 49.70393 | 43.08661 | 27586 ft | 441 kts | 148° |
| 2026-04-27 09:08 | 49.68094 | 43.11758 | 26976 ft | 436 kts | 148° |
| 2026-04-27 09:08 | 49.65819 | 43.14814 | 26374 ft | 432 kts | 148° |
| 2026-04-27 09:08 | 49.63564 | 43.17842 | 25772 ft | 428 kts | 149° |
| 2026-04-27 09:09 | 49.61330 | 43.20840 | 25173 ft | 424 kts | 149° |
| 2026-04-27 09:09 | 49.59115 | 43.23815 | 24582 ft | 421 kts | 149° |
| 2026-04-27 09:09 | 49.56918 | 43.26759 | 24007 ft | 417 kts | 149° |
| 2026-04-27 09:09 | 49.54735 | 43.29678 | 23450 ft | 413 kts | 150° |
| 2026-04-27 09:10 | 49.52575 | 43.32563 | 22845 ft | 409 kts | 149° |
| 2026-04-27 09:10 | 49.50445 | 43.35409 | 22341 ft | 402 kts | 149° |
| 2026-04-27 09:10 | 49.48346 | 43.38216 | 21860 ft | 397 kts | 149° |
| 2026-04-27 09:10 | 49.46273 | 43.40982 | 21403 ft | 392 kts | 149° |
| 2026-04-27 09:11 | 49.44912 | 43.42793 | 21106 ft | 389 kts | 149° |
| 2026-04-27 09:11 | 49.42195 | 43.46402 | 20498 ft | 383 kts | 149° |
| 2026-04-27 09:11 | 49.40214 | 43.49030 | 20050 ft | 380 kts | 148° |
| 2026-04-27 09:11 | 49.38241 | 43.51649 | 19862 ft | 369 kts | 149° |
| 2026-04-27 09:12 | 49.36337 | 43.54186 | 19727 ft | 355 kts | 149° |
| 2026-04-27 09:12 | 49.34520 | 43.56613 | 19296 ft | 341 kts | 149° |
| 2026-04-27 09:12 | 49.32737 | 43.58978 | 18663 ft | 336 kts | 149° |
| 2026-04-27 09:12 | 49.30972 | 43.61299 | 17954 ft | 334 kts | 148° |
| 2026-04-27 09:13 | 49.29206 | 43.63605 | 17401 ft | 333 kts | 148° |
| 2026-04-27 09:13 | 49.28045 | 43.65121 | 17151 ft | 331 kts | 148° |
| 2026-04-27 09:13 | 49.26350 | 43.67529 | 16759 ft | 335 kts | 140° |
| 2026-04-27 09:13 | 49.24926 | 43.70412 | 16330 ft | 343 kts | 128° |
| 2026-04-27 09:14 | 49.23724 | 43.73570 | 15857 ft | 345 kts | 127° |
| 2026-04-27 09:14 | 49.22524 | 43.76703 | 15616 ft | 338 kts | 127° |
| 2026-04-27 09:14 | 49.21333 | 43.79793 | 14999 ft | 339 kts | 127° |
| 2026-04-27 09:14 | 49.20139 | 43.82872 | 14739 ft | 334 kts | 127° |
| 2026-04-27 09:15 | 49.18950 | 43.85923 | 14370 ft | 334 kts | 126° |
| 2026-04-27 09:15 | 49.17784 | 43.88911 | 13981 ft | 330 kts | 126° |
| 2026-04-27 09:15 | 49.16613 | 43.91917 | 13292 ft | 328 kts | 126° |
| 2026-04-27 09:15 | 49.15457 | 43.94886 | 12709 ft | 322 kts | 126° |
| 2026-04-27 09:16 | 49.14330 | 43.97788 | 12270 ft | 314 kts | 126° |
| 2026-04-27 09:16 | 49.13211 | 44.00660 | 11840 ft | 316 kts | 126° |
| 2026-04-27 09:16 | 49.12085 | 44.03546 | 11405 ft | 317 kts | 126° |
| 2026-04-27 09:16 | 49.10953 | 44.06440 | 10971 ft | 318 kts | 126° |
| 2026-04-27 09:17 | 49.09822 | 44.09332 | 10625 ft | 316 kts | 125° |
| 2026-04-27 09:17 | 49.08709 | 44.12175 | 10269 ft | 314 kts | 125° |
| 2026-04-27 09:17 | 49.07596 | 44.15020 | 9908 ft | 310 kts | 125° |
| 2026-04-27 09:17 | 49.06500 | 44.17824 | 9370 ft | 303 kts | 125° |
| 2026-04-27 09:18 | 49.05443 | 44.20527 | 8912 ft | 293 kts | 125° |
| 2026-04-27 09:18 | 49.04403 | 44.23182 | 8413 ft | 286 kts | 125° |
| 2026-04-27 09:18 | 49.03413 | 44.25713 | 8117 ft | 273 kts | 126° |
| 2026-04-27 09:18 | 49.02435 | 44.28191 | 7544 ft | 271 kts | 126° |
| 2026-04-27 09:19 | 49.01476 | 44.30619 | 7123 ft | 265 kts | 126° |
| 2026-04-27 09:19 | 49.00531 | 44.33006 | 6734 ft | 264 kts | 126° |
| 2026-04-27 09:19 | 48.99581 | 44.35398 | 6325 ft | 262 kts | 126° |
| 2026-04-27 09:19 | 48.98639 | 44.37767 | 5906 ft | 260 kts | 126° |
| 2026-04-27 09:20 | 48.97718 | 44.40088 | 5568 ft | 254 kts | 126° |
| 2026-04-27 09:20 | 48.96799 | 44.42400 | 5201 ft | 256 kts | 126° |
| 2026-04-27 09:20 | 48.95877 | 44.44722 | 4803 ft | 257 kts | 126° |
| 2026-04-27 09:20 | 48.94946 | 44.47060 | 4380 ft | 259 kts | 128° |
| 2026-04-27 09:21 | 48.93794 | 44.49110 | 3962 ft | 253 kts | 146° |
| 2026-04-27 09:21 | 48.92367 | 44.50529 | 3725 ft | 238 kts | 162° |
| 2026-04-27 09:21 | 48.90906 | 44.51578 | 3505 ft | 233 kts | 162° |
| 2026-04-27 09:21 | 48.89459 | 44.52622 | 3264 ft | 229 kts | 162° |
| 2026-04-27 09:22 | 48.87999 | 44.53402 | 3030 ft | 215 kts | 179° |
| 2026-04-27 09:22 | 48.86559 | 44.53448 | 2822 ft | 200 kts | 197° |
| 2026-04-27 09:22 | 48.85270 | 44.52879 | 2617 ft | 187 kts | 213° |
| 2026-04-27 09:22 | 48.84221 | 44.51863 | 2434 ft | 172 kts | 227° |
| 2026-04-27 09:23 | 48.83458 | 44.50579 | 2262 ft | 157 kts | 240° |
| 2026-04-27 09:23 | 48.82967 | 44.49192 | 2156 ft | 143 kts | 248° |
| 2026-04-27 09:23 | 48.82553 | 44.47882 | 2083 ft | 132 kts | 248° |
| 2026-04-27 09:23 | 48.82163 | 44.46647 | 2052 ft | 127 kts | 248° |
| 2026-04-27 09:24 | 48.81789 | 44.45458 | 1981 ft | 127 kts | 248° |
| 2026-04-27 09:24 | 48.81407 | 44.44247 | 1853 ft | 128 kts | 248° |
| 2026-04-27 09:24 | 48.81025 | 44.43040 | 1696 ft | 126 kts | 249° |
| 2026-04-27 09:24 | 48.80646 | 44.41840 | 1520 ft | 125 kts | 249° |
| 2026-04-27 09:25 | 48.80269 | 44.40640 | 1353 ft | 127 kts | 248° |
| 2026-04-27 09:25 | 48.79879 | 44.39430 | 1113 ft | 129 kts | 248° |
| 2026-04-27 09:25 | 48.79499 | 44.38209 | 931 ft | 128 kts | 249° |
| 2026-04-27 09:25 | 48.79119 | 44.37013 | 779 ft | 128 kts | 249° |
| 2026-04-27 09:26 | 48.78727 | 44.35784 | 596 ft | 129 kts | 250° |
| 2026-04-27 09:26 | 48.78355 | 44.34583 | 478 ft | 117 kts | 250° |
| 2026-04-27 09:26 | 48.78059 | 44.33641 | 464 ft | 76 kts | 243° |
| 2026-04-27 09:26 | 48.77897 | 44.33148 | 448 ft | 37 kts | 244° |
| 2026-04-27 09:27 | 48.77793 | 44.32822 | 430 ft | 33 kts | 244° |
| 2026-04-27 09:27 | 48.77699 | 44.32522 | 426 ft | 32 kts | 243° |
| 2026-04-27 09:27 | 48.77605 | 44.32231 | 419 ft | 29 kts | 244° |
| 2026-04-27 09:27 | 48.77537 | 44.32020 | 415 ft | 19 kts | 244° |
| 2026-04-27 09:28 | 48.77501 | 44.31901 | 411 ft | 8 kts | 255° |
| 2026-04-27 09:28 | 48.77529 | 44.31827 | 416 ft | 8 kts | 329° |
| 2026-04-27 09:28 | 48.77578 | 44.31791 | 413 ft | 8 kts | 335° |
| 2026-04-27 09:28 | 48.77633 | 44.31778 | 416 ft | 8 kts | 23° |
| 2026-04-27 09:29 | 48.77658 | 44.31827 | 411 ft | 4 kts | 61° |
| 2026-04-27 09:29 | 48.77673 | 44.31872 | 414 ft | 6 kts | 64° |
| 2026-04-27 09:29 | 48.77695 | 44.31941 | 412 ft | 8 kts | 64° |
| 2026-04-27 09:29 | 48.77723 | 44.32029 | 419 ft | 10 kts | 65° |
| 2026-04-27 09:30 | 48.77754 | 44.32130 | 419 ft | 11 kts | 65° |
| 2026-04-27 09:30 | 48.77787 | 44.32233 | 424 ft | 11 kts | 64° |
| 2026-04-27 09:30 | 48.77821 | 44.32340 | 431 ft | 11 kts | 64° |
| 2026-04-27 09:30 | 48.77855 | 44.32447 | 434 ft | 11 kts | 64° |
| 2026-04-27 09:31 | 48.77889 | 44.32553 | 433 ft | 11 kts | 64° |
| 2026-04-27 09:31 | 48.77921 | 44.32655 | 441 ft | 11 kts | 64° |
| 2026-04-27 09:31 | 48.77952 | 44.32753 | 432 ft | 10 kts | 64° |
| 2026-04-27 09:31 | 48.77982 | 44.32847 | 447 ft | 10 kts | 64° |
| 2026-04-27 09:32 | 48.78012 | 44.32942 | 450 ft | 10 kts | 64° |
| 2026-04-27 09:32 | 48.78042 | 44.33036 | 452 ft | 10 kts | 64° |
| 2026-04-27 09:32 | 48.78072 | 44.33129 | 454 ft | 10 kts | 64° |
| 2026-04-27 09:32 | 48.78101 | 44.33223 | 457 ft | 10 kts | 64° |
| 2026-04-27 09:33 | 48.78132 | 44.33319 | 461 ft | 10 kts | 64° |
| 2026-04-27 09:33 | 48.78163 | 44.33416 | 464 ft | 10 kts | 64° |
| 2026-04-27 09:33 | 48.78194 | 44.33515 | 467 ft | 11 kts | 64° |
| 2026-04-27 09:33 | 48.78227 | 44.33619 | 470 ft | 11 kts | 64° |
| 2026-04-27 09:34 | 48.78262 | 44.33729 | 473 ft | 12 kts | 64° |
| 2026-04-27 09:34 | 48.78298 | 44.33844 | 473 ft | 12 kts | 64° |
| 2026-04-27 09:34 | 48.78335 | 44.33960 | 474 ft | 11 kts | 64° |
| 2026-04-27 09:34 | 48.78365 | 44.34054 | 475 ft | 9 kts | 64° |
| 2026-04-27 09:35 | 48.78394 | 44.34146 | 474 ft | 11 kts | 64° |
| 2026-04-27 09:35 | 48.78423 | 44.34202 | 479 ft | 6 kts | 29° |
| 2026-04-27 09:35 | 48.78454 | 44.34202 | 473 ft | 3 kts | 348° |
| 2026-04-27 09:35 | 48.78480 | 44.34192 | 476 ft | 5 kts | 346° |
| 2026-04-27 09:36 | 48.78537 | 44.34169 | 480 ft | 11 kts | 345° |
| 2026-04-27 09:36 | 48.78598 | 44.34145 | 481 ft | 6 kts | 347° |
| 2026-04-27 09:36 | 48.78647 | 44.34174 | 481 ft | 9 kts | 50° |
| 2026-04-27 09:36 | 48.78677 | 44.34281 | 479 ft | 13 kts | 69° |
| 2026-04-27 09:37 | 48.78714 | 44.34424 | 483 ft | 16 kts | 68° |
| 2026-04-27 09:37 | 48.78753 | 44.34579 | 478 ft | 14 kts | 69° |
| 2026-04-27 09:37 | 48.78788 | 44.34721 | 481 ft | 14 kts | 69° |
| 2026-04-27 09:37 | 48.78822 | 44.34856 | 486 ft | 13 kts | 70° |
| 2026-04-27 09:38 | 48.78852 | 44.34980 | 480 ft | 12 kts | 69° |
| 2026-04-27 09:38 | 48.78879 | 44.35072 | 484 ft | 8 kts | 55° |
| 2026-04-27 09:38 | 48.78916 | 44.35122 | 486 ft | 6 kts | 49° |
| 2026-04-27 09:38 | 48.78937 | 44.35180 | 479 ft | 7 kts | 66° |
| 2026-04-27 09:39 | 48.78949 | 44.35230 | 483 ft | 3 kts | 70° |
| 2026-04-27 09:39 | 48.78961 | 44.35245 | 478 ft | 2 kts | 4° |
| 2026-04-27 09:39 | 48.78971 | 44.35245 | 484 ft | 1 kts | 360° |
| 2026-04-27 09:39 | 48.78990 | 44.35236 | 479 ft | 3 kts | 340° |
| 2026-04-27 09:40 | 48.79004 | 44.35229 | 482 ft | 1 kts | 340° |
| 2026-04-27 09:40 | 48.79009 | 44.35226 | 482 ft | 0 kts | 340° |
| 2026-04-27 09:40 | 48.79011 | 44.35225 | 482 ft | 0 kts | 340° |